createdAt,value
2022-10-09T00:01:28.743Z,19.92
2022-10-09T00:03:58.730Z,20.15
2022-10-09T00:06:31.356Z,22.02
2022-10-09T00:09:02.142Z,22.15
2022-10-09T00:11:32.985Z,24.00
2022-10-09T00:14:01.835Z,22.30
2022-10-09T00:16:30.824Z,17.27
2022-10-09T00:18:59.844Z,16.98
2022-10-09T00:21:31.973Z,23.95
2022-10-09T00:24:02.874Z,21.02
2022-10-09T00:26:31.524Z,18.58
2022-10-09T00:29:00.039Z,19.08
2022-10-09T00:31:29.204Z,16.65
2022-10-09T00:33:58.050Z,15.43
2022-10-09T00:41:27.143Z,15.23
2022-10-09T00:43:58.168Z,24.38
2022-10-09T00:46:35.328Z,17.88
2022-10-09T00:49:25.949Z,18.55
2022-10-09T00:51:55.620Z,18.92
2022-10-09T00:54:28.909Z,21.33
2022-10-09T00:56:57.607Z,16.15
2022-10-09T00:59:26.963Z,21.00
2022-10-09T01:01:55.622Z,16.75
2022-10-09T01:04:24.201Z,16.40
2022-10-09T01:07:05.950Z,14.90
2022-10-09T01:09:43.529Z,20.33
2022-10-09T01:12:19.097Z,15.50
2022-10-09T01:14:57.545Z,17.15
2022-10-09T01:17:34.589Z,12.05
2022-10-09T01:20:27.273Z,12.90
2022-10-09T01:23:08.274Z,16.88
2022-10-09T01:25:50.953Z,20.05
2022-10-09T01:28:23.733Z,22.05
2022-10-09T01:30:52.727Z,26.42
2022-10-09T01:35:49.382Z,30.20
2022-10-09T01:38:18.992Z,22.95
2022-10-09T01:40:47.534Z,26.88
2022-10-09T01:43:16.059Z,26.67
2022-10-09T01:45:47.353Z,28.63
2022-10-09T01:48:19.565Z,26.48
2022-10-09T01:50:54.212Z,23.52
2022-10-09T01:53:24.734Z,24.17
2022-10-09T01:55:59.239Z,22.63
2022-10-09T01:58:33.423Z,20.65
2022-10-09T02:01:08.080Z,22.83
2022-10-09T02:03:40.427Z,21.20
2022-10-09T02:06:13.262Z,17.02
2022-10-09T02:08:43.356Z,23.20
2022-10-09T02:11:12.371Z,20.30
2022-10-09T02:16:37.752Z,18.90
2022-10-09T02:19:13.204Z,17.60
2022-10-09T02:21:46.626Z,18.10
2022-10-09T02:24:18.501Z,25.52
2022-10-09T02:26:47.114Z,19.30
2022-10-09T02:29:17.102Z,20.33
2022-10-09T02:31:47.265Z,20.23
2022-10-09T02:34:19.597Z,19.73
2022-10-09T02:36:48.996Z,22.85
2022-10-09T02:39:17.424Z,20.85
2022-10-09T02:41:45.908Z,18.23
2022-10-09T02:44:14.274Z,21.80
2022-10-09T02:46:42.717Z,17.65
2022-10-09T02:49:12.877Z,19.88
2022-10-09T02:51:41.334Z,16.75
2022-10-09T02:54:10.724Z,13.18
2022-10-09T02:56:39.346Z,16.13
2022-10-09T02:59:07.982Z,16.40
2022-10-09T03:01:36.824Z,17.63
2022-10-09T03:04:05.844Z,19.15
2022-10-09T03:09:04.296Z,15.70
2022-10-09T03:14:00.872Z,15.80
2022-10-09T03:16:29.409Z,24.73
2022-10-09T03:18:58.646Z,20.70
2022-10-09T03:21:28.753Z,18.00
2022-10-09T03:23:58.722Z,22.55
2022-10-09T03:26:28.588Z,20.30
2022-10-09T03:28:57.698Z,21.23
2022-10-09T03:31:50.397Z,25.38
2022-10-09T03:34:16.252Z,28.13
2022-10-09T03:36:44.702Z,27.50
2022-10-09T03:39:14.595Z,28.05
2022-10-09T03:41:43.073Z,26.00
2022-10-09T03:44:11.519Z,30.92
2022-10-09T03:46:40.179Z,23.33
2022-10-09T03:49:08.994Z,28.00
2022-10-09T03:54:05.904Z,23.45
2022-10-09T03:59:05.733Z,20.20
2022-10-09T04:01:34.262Z,21.10
2022-10-09T04:04:02.657Z,22.25
2022-10-09T04:06:31.081Z,22.15
2022-10-09T04:08:59.425Z,19.15
2022-10-09T04:11:27.839Z,19.83
2022-10-09T04:13:57.665Z,17.40
2022-10-09T04:16:26.189Z,14.52
2022-10-09T04:18:54.767Z,15.48
2022-10-09T04:21:23.233Z,15.38
2022-10-09T04:23:52.532Z,15.60
2022-10-09T04:26:20.936Z,17.55
2022-10-09T04:28:49.367Z,17.73
2022-10-09T04:31:19.303Z,13.68
2022-10-09T04:33:47.821Z,12.65
2022-10-09T04:36:16.694Z,12.90
2022-10-09T04:41:13.301Z,13.82
2022-10-09T04:43:44.153Z,14.60
2022-10-09T04:46:14.769Z,14.32
2022-10-09T04:48:46.817Z,14.73
2022-10-09T04:51:16.142Z,14.15
2022-10-09T04:53:45.051Z,17.65
2022-10-09T04:58:43.655Z,14.38
2022-10-09T05:01:14.750Z,15.48
2022-10-09T05:03:48.542Z,13.55
2022-10-09T05:06:18.147Z,14.23
2022-10-09T05:08:47.123Z,15.10
2022-10-09T05:13:47.017Z,18.60
2022-10-09T05:16:17.890Z,12.77
2022-10-09T05:18:51.124Z,15.73
2022-10-09T05:21:20.122Z,16.20
2022-10-09T05:26:18.880Z,11.05
2022-10-09T05:28:47.687Z,9.65
2022-10-09T05:31:20.395Z,8.10
2022-10-09T05:33:50.725Z,12.05
2022-10-09T05:36:19.932Z,10.10
2022-10-09T05:38:48.306Z,9.43
2022-10-09T05:41:18.944Z,10.32
2022-10-09T05:43:49.556Z,13.23
2022-10-09T05:46:19.650Z,16.90
2022-10-09T05:48:53.829Z,10.50
2022-10-09T05:51:24.591Z,14.68
2022-10-09T05:53:53.903Z,10.70
2022-10-09T05:56:24.018Z,10.75
2022-10-09T05:58:54.164Z,23.95
2022-10-09T06:01:26.823Z,6.93
2022-10-09T06:03:58.457Z,12.93
2022-10-09T06:06:28.770Z,10.82
2022-10-09T06:08:59.197Z,13.68
2022-10-09T06:11:29.525Z,8.82
2022-10-09T06:13:58.634Z,12.98
2022-10-09T06:16:28.575Z,11.13
2022-10-09T06:18:59.530Z,10.20
2022-10-09T06:21:28.509Z,29.50
2022-10-09T06:26:29.182Z,13.07
2022-10-09T06:28:59.301Z,8.82
2022-10-09T06:31:29.946Z,11.10
2022-10-09T06:34:00.911Z,12.32
2022-10-09T06:36:31.276Z,12.13
2022-10-09T06:39:02.823Z,11.18
2022-10-09T06:41:31.897Z,10.15
2022-10-09T06:46:32.354Z,9.90
2022-10-09T06:49:03.360Z,11.07
2022-10-09T06:51:32.458Z,6.57
2022-10-09T06:54:02.812Z,9.93
2022-10-09T06:56:33.260Z,9.40
2022-10-09T06:59:02.097Z,8.40
2022-10-09T07:01:32.440Z,13.38
2022-10-09T07:04:03.705Z,9.02
2022-10-09T07:06:33.154Z,13.50
2022-10-09T07:09:05.641Z,10.40
2022-10-09T07:11:36.152Z,9.35
2022-10-09T07:14:07.219Z,10.48
2022-10-09T07:16:38.245Z,10.50
2022-10-09T07:19:11.261Z,9.20
2022-10-09T07:21:41.249Z,10.88
2022-10-09T07:24:10.418Z,11.40
2022-10-09T07:26:41.231Z,10.38
2022-10-09T07:29:11.129Z,9.23
2022-10-09T07:31:40.016Z,8.88
2022-10-09T07:36:38.239Z,8.55
2022-10-09T07:39:07.405Z,9.85
2022-10-09T07:41:39.053Z,9.65
2022-10-09T07:44:07.564Z,12.90
2022-10-09T07:46:36.122Z,11.68
2022-10-09T07:49:05.599Z,11.98
2022-10-09T07:51:35.534Z,8.27
2022-10-09T07:54:04.388Z,9.75
2022-10-09T07:56:35.036Z,12.45
2022-10-09T07:59:08.322Z,12.07
2022-10-09T08:01:37.825Z,7.97
2022-10-09T08:04:07.078Z,12.75
2022-10-09T08:06:37.161Z,13.75
2022-10-09T08:09:07.840Z,10.32
2022-10-09T08:11:40.647Z,9.43
2022-10-09T08:14:16.607Z,11.98
2022-10-09T08:16:48.281Z,12.50
2022-10-09T08:19:17.113Z,5.93
2022-10-09T08:21:48.834Z,9.23
2022-10-09T08:24:17.611Z,8.52
2022-10-09T08:26:46.118Z,11.20
2022-10-09T08:29:18.818Z,8.38
2022-10-09T08:31:47.589Z,6.90
2022-10-09T08:34:16.227Z,11.10
2022-10-09T08:36:46.558Z,9.95
2022-10-09T08:39:15.459Z,7.95
2022-10-09T08:44:19.701Z,14.23
2022-10-09T08:47:05.167Z,7.57
2022-10-09T08:49:41.796Z,7.28
2022-10-09T08:52:31.208Z,10.18
2022-10-09T08:55:08.114Z,10.35
2022-10-09T08:57:36.982Z,11.20
2022-10-09T09:02:53.793Z,10.55
2022-10-09T09:05:34.482Z,12.20
2022-10-09T09:08:12.315Z,5.72
2022-10-09T09:10:44.383Z,9.00
2022-10-09T09:13:29.714Z,10.95
2022-10-09T09:16:09.169Z,7.50
2022-10-09T09:18:45.911Z,9.65
2022-10-09T09:21:25.224Z,8.18
2022-10-09T09:23:55.372Z,7.20
2022-10-09T09:26:24.934Z,7.15
2022-10-09T09:29:00.262Z,8.07
2022-10-09T09:31:39.403Z,5.72
2022-10-09T09:34:13.333Z,9.82
2022-10-09T09:36:47.802Z,8.77
2022-10-09T09:42:18.746Z,8.75
2022-10-09T09:44:57.649Z,7.25
2022-10-09T09:47:36.144Z,8.18
2022-10-09T09:50:18.537Z,25.50
2022-10-09T09:53:01.004Z,9.20
2022-10-09T09:55:34.179Z,9.80
2022-10-09T09:58:05.365Z,5.70
2022-10-09T10:00:37.205Z,6.68
2022-10-09T10:03:14.083Z,7.63
2022-10-09T10:05:44.797Z,6.63
2022-10-09T10:08:23.995Z,6.40
2022-10-09T10:10:57.747Z,9.60
2022-10-09T10:13:36.945Z,6.95
2022-10-09T10:16:08.840Z,6.90
2022-10-09T10:18:45.625Z,10.98
2022-10-09T10:21:19.892Z,10.45
2022-10-09T10:23:54.646Z,9.82
2022-10-09T10:26:31.556Z,6.38
2022-10-09T10:29:08.260Z,6.80
2022-10-09T10:31:44.923Z,8.68
2022-10-09T10:34:20.770Z,8.55
2022-10-09T10:37:02.576Z,9.30
2022-10-09T10:39:39.214Z,6.38
2022-10-09T10:42:20.647Z,8.32
2022-10-09T10:44:58.578Z,5.70
2022-10-09T10:47:31.548Z,11.23
2022-10-09T10:50:03.498Z,7.50
2022-10-09T10:52:51.584Z,8.38
2022-10-09T10:55:41.449Z,7.60
2022-10-09T10:58:31.030Z,7.32
2022-10-09T11:01:17.713Z,7.00
2022-10-09T11:04:08.496Z,10.20
2022-10-09T11:06:47.118Z,7.88
2022-10-09T11:09:26.045Z,10.00
2022-10-09T11:12:02.780Z,8.45
2022-10-09T11:14:46.427Z,9.55
2022-10-09T11:17:26.963Z,8.63
2022-10-09T11:20:21.946Z,9.13
2022-10-09T11:23:06.379Z,9.13
2022-10-09T11:25:45.244Z,6.85
2022-10-09T11:28:19.558Z,8.38
2022-10-09T11:31:00.781Z,6.45
2022-10-09T11:33:37.634Z,8.23
2022-10-09T11:36:13.471Z,11.45
2022-10-09T11:38:47.988Z,9.13
2022-10-09T11:41:18.328Z,11.10
2022-10-09T11:44:16.820Z,6.68
2022-10-09T11:47:00.281Z,11.52
2022-10-09T11:49:39.711Z,9.25
2022-10-09T11:52:20.505Z,6.72
2022-10-09T11:54:50.224Z,10.15
2022-10-09T11:57:30.076Z,10.27
2022-10-09T12:00:09.348Z,10.68
2022-10-09T12:02:42.331Z,8.73
2022-10-09T12:05:20.479Z,9.63
2022-10-09T12:07:50.160Z,9.63
2022-10-09T12:10:29.887Z,7.38
2022-10-09T12:13:03.449Z,7.53
2022-10-09T12:15:47.134Z,7.47
2022-10-09T12:18:27.018Z,10.85
2022-10-09T12:20:58.470Z,10.52
2022-10-09T12:23:34.656Z,6.95
2022-10-09T12:26:06.260Z,10.48
2022-10-09T12:28:40.320Z,8.27
2022-10-09T12:31:22.372Z,11.20
2022-10-09T12:33:57.877Z,10.15
2022-10-09T12:36:29.685Z,8.75
2022-10-09T12:38:59.676Z,9.70
2022-10-09T12:41:31.924Z,11.15
2022-10-09T12:44:02.605Z,10.15
2022-10-09T12:46:35.353Z,10.40
2022-10-09T12:49:21.506Z,12.80
2022-10-09T12:51:57.096Z,12.32
2022-10-09T12:54:27.544Z,7.57
2022-10-09T12:56:59.813Z,8.07
2022-10-09T12:59:33.624Z,8.55
2022-10-09T13:02:05.021Z,10.68
2022-10-09T13:04:36.435Z,15.35
2022-10-09T13:07:18.507Z,7.05
2022-10-09T13:09:48.448Z,7.10
2022-10-09T13:12:22.570Z,8.25
2022-10-09T13:14:57.010Z,9.77
2022-10-09T13:17:33.133Z,6.80
2022-10-09T13:20:24.375Z,9.48
2022-10-09T13:22:59.379Z,5.95
2022-10-09T13:25:34.238Z,9.75
2022-10-09T13:28:05.411Z,9.43
2022-10-09T13:30:37.621Z,11.70
2022-10-09T13:33:12.479Z,8.77
2022-10-09T13:35:44.320Z,8.43
2022-10-09T13:38:16.880Z,10.38
2022-10-09T13:40:46.866Z,8.30
2022-10-09T13:43:22.997Z,8.70
2022-10-09T13:45:55.197Z,11.73
2022-10-09T13:48:25.982Z,12.75
2022-10-09T13:50:59.524Z,9.00
2022-10-09T13:53:29.416Z,10.80
2022-10-09T13:56:00.958Z,7.28
2022-10-09T13:58:32.041Z,6.90
2022-10-09T14:01:02.022Z,11.27
2022-10-09T14:03:32.256Z,9.82
2022-10-09T14:06:04.836Z,9.98
2022-10-09T14:08:35.673Z,10.77
2022-10-09T14:11:05.703Z,9.85
2022-10-09T14:13:35.660Z,10.77
2022-10-09T14:16:07.102Z,10.95
2022-10-09T14:18:37.038Z,7.97
2022-10-09T14:21:15.214Z,8.07
2022-10-09T14:23:45.661Z,13.00
2022-10-09T14:26:15.622Z,10.50
2022-10-09T14:28:45.440Z,7.40
2022-10-09T14:31:15.279Z,10.48
2022-10-09T14:33:45.528Z,9.00
2022-10-09T14:36:19.101Z,9.23
2022-10-09T14:38:49.849Z,13.98
2022-10-09T14:41:21.139Z,9.60
2022-10-09T14:43:57.268Z,8.25
2022-10-09T14:46:28.453Z,8.00
2022-10-09T14:48:59.639Z,8.88
2022-10-09T14:51:36.009Z,6.85
2022-10-09T14:54:06.903Z,7.40
2022-10-09T14:56:40.927Z,5.32
2022-10-09T14:59:11.014Z,8.32
2022-10-09T15:01:41.167Z,7.00
2022-10-09T15:04:11.013Z,7.68
2022-10-09T15:07:02.230Z,6.60
2022-10-09T15:09:31.959Z,8.88
2022-10-09T15:12:01.890Z,8.75
2022-10-09T15:14:33.908Z,5.15
2022-10-09T15:17:03.931Z,4.47
2022-10-09T15:19:33.878Z,3.13
2022-10-09T15:22:06.128Z,2.92
2022-10-09T15:24:36.125Z,5.45
2022-10-09T15:27:06.851Z,3.28
2022-10-09T15:29:36.767Z,3.40
2022-10-09T15:32:07.437Z,3.30
2022-10-09T15:34:40.823Z,5.22
2022-10-09T15:37:12.765Z,2.80
2022-10-09T15:39:43.291Z,2.40
2022-10-09T15:42:14.956Z,2.88
2022-10-09T15:44:44.956Z,3.42
2022-10-09T15:47:16.603Z,3.92
2022-10-09T15:49:52.618Z,3.60
2022-10-09T15:52:24.873Z,6.47
2022-10-09T15:54:56.255Z,4.22
2022-10-09T15:57:29.879Z,2.97
2022-10-09T16:00:00.798Z,5.03
2022-10-09T16:02:32.784Z,5.28
2022-10-09T16:05:02.945Z,5.28
2022-10-09T16:07:37.572Z,5.28
2022-10-09T16:10:13.237Z,5.93
2022-10-09T16:12:46.463Z,4.80
2022-10-09T16:15:20.134Z,6.00
2022-10-09T16:18:00.733Z,5.68
2022-10-09T16:20:31.312Z,5.47
2022-10-09T16:23:05.619Z,6.80
2022-10-09T16:25:41.159Z,8.43
2022-10-09T16:28:17.635Z,9.13
2022-10-09T16:30:47.795Z,9.18
2022-10-09T16:33:18.012Z,10.35
2022-10-09T16:35:51.521Z,8.63
2022-10-09T16:38:23.931Z,12.57
2022-10-09T16:41:01.894Z,8.25
2022-10-09T16:43:36.473Z,10.48
2022-10-09T16:46:21.877Z,11.00
2022-10-09T16:48:53.793Z,11.18
2022-10-09T16:51:27.677Z,10.57
2022-10-09T16:54:02.920Z,12.38
2022-10-09T16:56:37.070Z,10.65
2022-10-09T16:59:09.493Z,10.40
2022-10-09T17:01:44.529Z,10.82
2022-10-09T17:04:15.765Z,10.18
2022-10-09T17:06:46.985Z,10.27
2022-10-09T17:09:20.245Z,9.65
2022-10-09T17:11:52.225Z,13.93
2022-10-09T17:14:23.462Z,16.48
2022-10-09T17:16:55.061Z,13.85
2022-10-09T17:19:25.571Z,13.27
2022-10-09T17:21:55.647Z,15.30
2022-10-09T17:24:30.650Z,14.63
2022-10-09T17:27:03.027Z,13.10
2022-10-09T17:29:34.042Z,15.07
2022-10-09T17:32:05.287Z,16.77
2022-10-09T17:34:45.604Z,15.57
2022-10-09T17:37:15.649Z,16.17
2022-10-09T17:39:52.037Z,13.32
2022-10-09T17:42:23.025Z,13.13
2022-10-09T17:44:53.272Z,13.15
2022-10-09T17:47:23.622Z,17.00
2022-10-09T17:50:00.655Z,15.27
2022-10-09T17:52:35.582Z,14.65
2022-10-09T17:55:10.472Z,14.65
2022-10-09T17:57:42.995Z,12.70
2022-10-09T18:00:21.514Z,13.57
2022-10-09T18:02:53.006Z,13.82
2022-10-09T18:05:31.116Z,12.95
2022-10-09T18:08:03.582Z,14.20
2022-10-09T18:10:40.180Z,13.18
2022-10-09T18:13:13.990Z,13.65
2022-10-09T18:15:48.314Z,14.85
2022-10-09T18:18:21.560Z,12.55
2022-10-09T18:20:52.086Z,14.15
2022-10-09T18:23:30.858Z,13.88
2022-10-09T18:26:04.034Z,13.10
2022-10-09T18:28:34.585Z,16.02
2022-10-09T18:31:08.317Z,12.27
2022-10-09T18:33:50.513Z,16.77
2022-10-09T18:36:23.992Z,12.30
2022-10-09T18:38:56.655Z,16.38
2022-10-09T18:41:28.449Z,13.48
2022-10-09T18:44:02.132Z,19.10
2022-10-09T18:46:42.043Z,18.13
2022-10-09T18:49:19.762Z,12.65
2022-10-09T18:51:54.301Z,14.65
2022-10-09T18:54:31.513Z,13.13
2022-10-09T18:57:07.353Z,14.98
2022-10-09T18:59:41.119Z,14.70
2022-10-09T19:02:16.776Z,16.73
2022-10-09T19:04:48.264Z,12.57
2022-10-09T19:07:18.787Z,15.05
2022-10-09T19:09:57.146Z,13.35
2022-10-09T19:12:43.468Z,13.55
2022-10-09T19:15:18.759Z,15.52
2022-10-09T19:17:49.689Z,13.15
2022-10-09T19:20:22.730Z,17.30
2022-10-09T19:22:54.322Z,19.65
2022-10-09T19:25:24.390Z,13.32
2022-10-09T19:27:56.538Z,13.63
2022-10-09T19:30:32.775Z,17.45
2022-10-09T19:33:04.753Z,12.52
2022-10-09T19:35:34.873Z,24.80
2022-10-09T19:38:05.559Z,16.25
2022-10-09T19:40:37.745Z,16.30
2022-10-09T19:43:10.989Z,14.93
2022-10-09T19:45:42.646Z,16.58
2022-10-09T19:48:12.842Z,15.82
2022-10-09T19:50:49.622Z,13.90
2022-10-09T19:53:19.613Z,13.80
2022-10-09T19:55:52.522Z,15.93
2022-10-09T19:58:24.424Z,16.13
2022-10-09T20:00:54.517Z,17.85
2022-10-09T20:03:24.883Z,18.45
2022-10-09T20:05:54.921Z,16.95
2022-10-09T20:08:27.511Z,20.23
2022-10-09T20:11:03.640Z,14.93
2022-10-09T20:13:40.084Z,17.52
2022-10-09T20:16:12.867Z,16.77
2022-10-09T20:18:43.563Z,14.07
2022-10-09T20:21:17.206Z,14.98
2022-10-09T20:23:47.485Z,14.70
2022-10-09T20:26:19.537Z,14.00
2022-10-09T20:28:54.381Z,13.85
2022-10-09T20:31:28.970Z,16.15
2022-10-09T20:33:59.993Z,13.55
2022-10-09T20:36:35.748Z,12.77
2022-10-09T20:39:10.104Z,13.10
2022-10-09T20:41:43.841Z,13.75
2022-10-09T20:44:15.110Z,12.45
2022-10-09T20:46:46.928Z,13.70
2022-10-09T20:49:23.825Z,13.30
2022-10-09T20:51:53.360Z,11.30
2022-10-09T20:54:23.293Z,12.10
2022-10-09T20:56:56.031Z,11.82
2022-10-09T20:59:36.302Z,11.75
2022-10-09T21:02:05.273Z,9.98
2022-10-09T21:07:02.310Z,11.50
2022-10-09T21:12:02.654Z,10.80
2022-10-09T21:17:10.950Z,11.90
2022-10-09T21:19:42.555Z,9.23
2022-10-09T21:22:12.262Z,12.73
2022-10-09T21:24:43.720Z,10.48
2022-10-09T21:27:14.809Z,11.00
2022-10-09T21:29:44.789Z,10.57
2022-10-09T21:32:13.365Z,10.93
2022-10-09T21:34:50.697Z,13.48
2022-10-09T21:37:22.288Z,10.32
2022-10-09T21:39:51.194Z,12.82
2022-10-09T21:42:19.722Z,11.57
2022-10-09T21:44:58.313Z,10.00
2022-10-09T21:47:28.927Z,10.82
2022-10-09T21:49:57.428Z,11.25
2022-10-09T21:52:36.324Z,9.93
2022-10-09T21:55:05.955Z,9.25
2022-10-09T21:57:34.457Z,8.52
2022-10-09T22:00:08.006Z,8.45
2022-10-09T22:02:38.784Z,9.45
2022-10-09T22:05:07.856Z,12.38
2022-10-09T22:07:41.570Z,8.57
2022-10-09T22:10:11.092Z,7.40
2022-10-09T22:12:47.329Z,10.20
2022-10-09T22:15:17.694Z,11.45
2022-10-09T22:17:48.962Z,7.13
2022-10-09T22:20:17.998Z,7.45
2022-10-09T22:22:46.568Z,9.07
2022-10-09T22:25:18.712Z,7.05
2022-10-09T22:28:00.971Z,8.52
2022-10-09T22:30:31.057Z,7.78
2022-10-09T22:33:00.117Z,5.95
2022-10-09T22:37:57.787Z,7.60
2022-10-09T22:40:29.165Z,10.23
2022-10-09T22:43:03.553Z,9.52
2022-10-09T22:45:38.314Z,9.18
2022-10-09T22:48:08.716Z,10.73
2022-10-09T22:50:38.241Z,5.13
2022-10-09T22:53:06.845Z,5.80
2022-10-09T22:55:35.253Z,7.57
2022-10-09T22:58:09.352Z,7.03
2022-10-09T23:00:42.396Z,6.47
2022-10-09T23:03:15.698Z,6.22
2022-10-09T23:05:45.136Z,7.20
2022-10-09T23:08:19.490Z,4.93
2022-10-09T23:10:48.079Z,5.18
2022-10-09T23:13:16.700Z,4.85
2022-10-09T23:15:47.510Z,7.95
2022-10-09T23:18:16.092Z,5.25
2022-10-09T23:20:47.491Z,7.38
2022-10-09T23:23:18.318Z,6.25
2022-10-09T23:25:53.030Z,5.35
2022-10-09T23:28:24.435Z,4.90
2022-10-09T23:30:57.349Z,3.58
2022-10-09T23:33:25.841Z,5.82
2022-10-09T23:35:59.959Z,5.53
2022-10-09T23:38:31.136Z,3.80
2022-10-09T23:41:00.733Z,4.63
2022-10-09T23:43:30.449Z,4.15
2022-10-09T23:46:05.372Z,4.75
2022-10-09T23:48:59.492Z,5.37
2022-10-09T23:51:28.754Z,4.03
2022-10-09T23:53:57.550Z,7.80
2022-10-09T23:58:58.789Z,4.10
